LFRD/DNR METAR and TAF weather

Enter ICAO airport designator
Station Type Date Time Source
LFRD METAR 2022/06/27 18:00 UTC NOAA

LFRD 271800Z AUTO 35007KT 9999 BKN036 BKN046 OVC082 16/10 Q1021 NOSIG


Station Type Date Time Source
LFRD Decoded METAR 2022/06/27 18:00 UTC NOAA

Dinard, France (LFRD) 48-35N 002-04W 60M
Jun 27, 2022 - 02:00 PM EDT / 2022.06.27 1800 UTC
Wind: from the N (350 degrees) at 8 MPH (7 KT):0
Visibility: greater than 7 mile(s):0
Sky conditions: overcast
Temperature: 60 F (16 C)
Dew Point: 50 F (10 C)
Relative Humidity: 67%
Pressure (altimeter): 30.15 in. Hg (1021 hPa)
ob: LFRD 271800Z AUTO 35007KT 9999 BKN036 BKN046 OVC082 16/10 Q1021 NOSIG
cycle: 18

Station Type Date Time Source
LFRD TAF 2022/06/27 18:21 UTC NOAA

TAF LFRD 271700Z 2718/2818 35010KT 9999 SCT030
BECMG 2718/2720 VRB05KT PROB40
TEMPO 2802/2806 4000 BR
BECMG 2807/2809 20010KT PROB40
TEMPO 2812/2817 22015G25KT

Example: see airport list